Accueil
METAR-TAF:

METAR-TAF

Aéroports :

Lleida-Alguaire

Lleida, Espagne

latitude: 41-43-40N, longitude: 000-32-09E, altitude: 350 m

Observation

Le bulletin a été fait il y a 29 minutes, à 06:00 UTC
Vent 4 kt de sud/sud-ouest
Température 18°C
Humidité 83%
Pression 1020 hPa
Visibilité 10 km ou plus

METAR: LEDA 200600Z AUTO 20004KT 9999 NCD 18/15 Q1020

Heure: 08:29 (06:29 UTC)

Prévision

Le bulletin a été fait il y a 16 heures et 29 minutes, à 14:00 UTC
Prévision valable du 19 à 15 UTC au 20 à 15 UTC
Vent 6 kt de sud-ouest
Visibilité 10 km ou plus
Quelques nuages à une hauteur de 3000 ft

TAF: LEDA 191400Z 1915/2015 23006KT 9999 FEW030 TX34/2014Z TN18/2005Z

Observations et prévisions météorologiques de plus de 4000 aéroports (messages METAR et TAF).

Les stations disponibles sont représentées par des disques jaunes et rouges sur la carte.

Passer la souris dessus pour voir le nom de la station.

Cliquer dessus pour voir les observations et prévisions météorologiques.

Pour changer de carte: cliquez sur les boutons verts avec une croix noire pour zoomer, sur le bouton vert avec un tiret pour effectuer un zoom arrière, ou sur les flèches vertes pour les cartes adjacentes.


METAR-TAF: